sensor_id;sensor_type;location;lat;lon;timestamp;temperature;humidity
39189;DHT22;24915;50.858;4.376;2023-02-27T00:01:00;2.80;99.90
39189;DHT22;24915;50.858;4.376;2023-02-27T00:03:26;2.70;99.90
39189;DHT22;24915;50.858;4.376;2023-02-27T00:05:52;2.70;99.90
39189;DHT22;24915;50.858;4.376;2023-02-27T00:08:17;2.70;99.90
39189;DHT22;24915;50.858;4.376;2023-02-27T00:10:43;2.70;99.90
39189;DHT22;24915;50.858;4.376;2023-02-27T00:13:09;2.70;99.90
39189;DHT22;24915;50.858;4.376;2023-02-27T00:15:35;2.60;99.90
39189;DHT22;24915;50.858;4.376;2023-02-27T00:18:03;2.60;99.90
39189;DHT22;24915;50.858;4.376;2023-02-27T00:20:29;2.60;99.90
39189;DHT22;24915;50.858;4.376;2023-02-27T00:22:56;2.60;99.90
39189;DHT22;24915;50.858;4.376;2023-02-27T00:25:22;2.60;99.90
39189;DHT22;24915;50.858;4.376;2023-02-27T00:27:47;2.50;99.90
39189;DHT22;24915;50.858;4.376;2023-02-27T00:30:14;2.50;99.90
39189;DHT22;24915;50.858;4.376;2023-02-27T00:32:40;2.50;99.90
39189;DHT22;24915;50.858;4.376;2023-02-27T00:35:08;2.50;99.90
39189;DHT22;24915;50.858;4.376;2023-02-27T00:37:34;2.50;99.90
39189;DHT22;24915;50.858;4.376;2023-02-27T00:40:00;2.50;99.90
39189;DHT22;24915;50.858;4.376;2023-02-27T00:42:26;2.50;99.90
39189;DHT22;24915;50.858;4.376;2023-02-27T00:44:53;2.50;99.90
39189;DHT22;24915;50.858;4.376;2023-02-27T00:47:18;2.40;99.90
39189;DHT22;24915;50.858;4.376;2023-02-27T00:49:44;2.40;99.90
39189;DHT22;24915;50.858;4.376;2023-02-27T00:52:10;2.40;99.90
39189;DHT22;24915;50.858;4.376;2023-02-27T00:54:35;2.40;99.90
39189;DHT22;24915;50.858;4.376;2023-02-27T00:57:01;2.30;99.90
39189;DHT22;24915;50.858;4.376;2023-02-27T00:59:27;2.30;99.90
39189;DHT22;24915;50.858;4.376;2023-02-27T01:01:53;2.30;99.90
39189;DHT22;24915;50.858;4.376;2023-02-27T01:04:18;2.30;99.90
39189;DHT22;24915;50.858;4.376;2023-02-27T01:06:44;2.30;99.90
39189;DHT22;24915;50.858;4.376;2023-02-27T01:09:10;2.30;99.90
39189;DHT22;24915;50.858;4.376;2023-02-27T01:11:36;2.30;99.90
39189;DHT22;24915;50.858;4.376;2023-02-27T01:14:02;2.30;99.90
39189;DHT22;24915;50.858;4.376;2023-02-27T01:16:28;2.30;99.90
39189;DHT22;24915;50.858;4.376;2023-02-27T01:18:54;2.30;99.90
39189;DHT22;24915;50.858;4.376;2023-02-27T01:21:20;2.20;99.90
39189;DHT22;24915;50.858;4.376;2023-02-27T01:23:45;2.20;99.90
39189;DHT22;24915;50.858;4.376;2023-02-27T01:26:11;2.20;99.90
39189;DHT22;24915;50.858;4.376;2023-02-27T01:28:36;2.20;99.90
39189;DHT22;24915;50.858;4.376;2023-02-27T01:31:02;2.20;99.90
39189;DHT22;24915;50.858;4.376;2023-02-27T01:33:28;2.20;99.90
39189;DHT22;24915;50.858;4.376;2023-02-27T01:35:53;2.20;99.90
39189;DHT22;24915;50.858;4.376;2023-02-27T01:38:19;2.10;99.90
39189;DHT22;24915;50.858;4.376;2023-02-27T01:40:45;2.10;99.90
39189;DHT22;24915;50.858;4.376;2023-02-27T01:43:16;2.10;99.90
39189;DHT22;24915;50.858;4.376;2023-02-27T01:45:43;2.10;99.90
39189;DHT22;24915;50.858;4.376;2023-02-27T01:48:31;2.10;99.90
39189;DHT22;24915;50.858;4.376;2023-02-27T01:51:05;2.00;99.90
39189;DHT22;24915;50.858;4.376;2023-02-27T01:53:33;2.00;99.90
39189;DHT22;24915;50.858;4.376;2023-02-27T01:56:05;2.00;99.90
39189;DHT22;24915;50.858;4.376;2023-02-27T01:58:32;2.00;99.90
39189;DHT22;24915;50.858;4.376;2023-02-27T02:00:58;2.00;99.90
39189;DHT22;24915;50.858;4.376;2023-02-27T02:06:08;2.00;99.90
39189;DHT22;24915;50.858;4.376;2023-02-27T02:08:38;2.00;99.90
39189;DHT22;24915;50.858;4.376;2023-02-27T02:11:05;2.00;99.90
39189;DHT22;24915;50.858;4.376;2023-02-27T02:13:32;2.00;99.90
39189;DHT22;24915;50.858;4.376;2023-02-27T02:16:30;1.90;99.90
39189;DHT22;24915;50.858;4.376;2023-02-27T02:31:09;1.80;99.90
39189;DHT22;24915;50.858;4.376;2023-02-27T02:42:21;1.80;99.90
39189;DHT22;24915;50.858;4.376;2023-02-27T02:45:08;1.70;99.90
39189;DHT22;24915;50.858;4.376;2023-02-27T02:56:29;1.70;99.90
39189;DHT22;24915;50.858;4.376;2023-02-27T02:59:28;1.70;99.90
39189;DHT22;24915;50.858;4.376;2023-02-27T03:02:02;1.70;99.90
39189;DHT22;24915;50.858;4.376;2023-02-27T03:04:53;1.60;99.90
39189;DHT22;24915;50.858;4.376;2023-02-27T03:07:23;1.60;99.90
39189;DHT22;24915;50.858;4.376;2023-02-27T03:09:54;1.60;99.90
39189;DHT22;24915;50.858;4.376;2023-02-27T03:12:22;1.50;99.90
39189;DHT22;24915;50.858;4.376;2023-02-27T03:14:54;1.50;99.90
39189;DHT22;24915;50.858;4.376;2023-02-27T03:17:39;1.50;99.90
39189;DHT22;24915;50.858;4.376;2023-02-27T03:20:09;1.50;99.90
39189;DHT22;24915;50.858;4.376;2023-02-27T03:22:41;1.50;99.90
39189;DHT22;24915;50.858;4.376;2023-02-27T03:25:10;1.50;99.90
39189;DHT22;24915;50.858;4.376;2023-02-27T03:27:43;1.40;99.90
39189;DHT22;24915;50.858;4.376;2023-02-27T03:30:18;1.40;99.90
39189;DHT22;24915;50.858;4.376;2023-02-27T03:35:16;1.40;99.90
39189;DHT22;24915;50.858;4.376;2023-02-27T03:38:00;1.40;99.90
39189;DHT22;24915;50.858;4.376;2023-02-27T03:40:34;1.40;99.90
39189;DHT22;24915;50.858;4.376;2023-02-27T03:45:55;1.30;99.90
39189;DHT22;24915;50.858;4.376;2023-02-27T03:48:25;1.30;99.90
39189;DHT22;24915;50.858;4.376;2023-02-27T03:50:51;1.30;99.90
39189;DHT22;24915;50.858;4.376;2023-02-27T03:53:42;1.30;99.90
39189;DHT22;24915;50.858;4.376;2023-02-27T03:56:08;1.30;99.90
39189;DHT22;24915;50.858;4.376;2023-02-27T03:58:36;1.30;99.90
39189;DHT22;24915;50.858;4.376;2023-02-27T04:01:02;1.30;99.90
39189;DHT22;24915;50.858;4.376;2023-02-27T04:03:31;1.30;99.90
39189;DHT22;24915;50.858;4.376;2023-02-27T04:05:58;1.30;99.90
39189;DHT22;24915;50.858;4.376;2023-02-27T04:14:33;1.30;99.90
39189;DHT22;24915;50.858;4.376;2023-02-27T04:17:20;1.30;99.90
39189;DHT22;24915;50.858;4.376;2023-02-27T04:22:46;1.30;99.90
39189;DHT22;24915;50.858;4.376;2023-02-27T04:38:45;1.10;99.90
39189;DHT22;24915;50.858;4.376;2023-02-27T04:41:15;1.10;99.90
39189;DHT22;24915;50.858;4.376;2023-02-27T04:43:44;1.10;99.90
39189;DHT22;24915;50.858;4.376;2023-02-27T04:46:13;1.10;99.90
39189;DHT22;24915;50.858;4.376;2023-02-27T04:48:54;1.10;99.90
39189;DHT22;24915;50.858;4.376;2023-02-27T04:51:26;1.10;99.90
39189;DHT22;24915;50.858;4.376;2023-02-27T04:54:00;1.10;99.90
39189;DHT22;24915;50.858;4.376;2023-02-27T04:56:38;1.00;99.90
39189;DHT22;24915;50.858;4.376;2023-02-27T04:59:09;1.00;99.90
39189;DHT22;24915;50.858;4.376;2023-02-27T05:01:46;1.10;99.90
39189;DHT22;24915;50.858;4.376;2023-02-27T05:04:15;1.00;99.90
39189;DHT22;24915;50.858;4.376;2023-02-27T05:06:43;1.00;99.90
39189;DHT22;24915;50.858;4.376;2023-02-27T05:09:30;1.00;99.90
39189;DHT22;24915;50.858;4.376;2023-02-27T05:12:03;1.00;99.90
39189;DHT22;24915;50.858;4.376;2023-02-27T05:14:34;1.00;99.90
39189;DHT22;24915;50.858;4.376;2023-02-27T05:19:31;1.00;99.90
39189;DHT22;24915;50.858;4.376;2023-02-27T05:24:38;1.00;99.90
39189;DHT22;24915;50.858;4.376;2023-02-27T05:27:55;0.90;99.90
39189;DHT22;24915;50.858;4.376;2023-02-27T05:30:17;0.90;99.90
39189;DHT22;24915;50.858;4.376;2023-02-27T05:32:49;0.90;99.90
39189;DHT22;24915;50.858;4.376;2023-02-27T05:40:27;0.90;99.90
39189;DHT22;24915;50.858;4.376;2023-02-27T05:43:01;0.80;99.90
39189;DHT22;24915;50.858;4.376;2023-02-27T05:45:29;0.90;99.90
39189;DHT22;24915;50.858;4.376;2023-02-27T05:48:11;0.90;99.90
39189;DHT22;24915;50.858;4.376;2023-02-27T05:50:38;0.90;99.90
39189;DHT22;24915;50.858;4.376;2023-02-27T05:53:09;0.90;99.90
39189;DHT22;24915;50.858;4.376;2023-02-27T05:55:40;0.80;99.90
39189;DHT22;24915;50.858;4.376;2023-02-27T05:58:25;0.80;99.90
39189;DHT22;24915;50.858;4.376;2023-02-27T06:00:57;0.80;99.90
39189;DHT22;24915;50.858;4.376;2023-02-27T06:03:27;0.70;99.90
39189;DHT22;24915;50.858;4.376;2023-02-27T06:05:54;0.70;99.90
39189;DHT22;24915;50.858;4.376;2023-02-27T06:08:21;0.80;99.90
39189;DHT22;24915;50.858;4.376;2023-02-27T06:10:47;0.80;99.90
39189;DHT22;24915;50.858;4.376;2023-02-27T06:13:16;0.80;99.90
39189;DHT22;24915;50.858;4.376;2023-02-27T06:15:43;0.80;99.90
39189;DHT22;24915;50.858;4.376;2023-02-27T06:18:10;0.70;99.90
39189;DHT22;24915;50.858;4.376;2023-02-27T06:20:37;0.70;99.90
39189;DHT22;24915;50.858;4.376;2023-02-27T06:23:03;0.70;99.90
39189;DHT22;24915;50.858;4.376;2023-02-27T06:25:29;0.70;99.90
39189;DHT22;24915;50.858;4.376;2023-02-27T06:27:54;0.70;99.90
39189;DHT22;24915;50.858;4.376;2023-02-27T06:30:20;0.70;99.90
39189;DHT22;24915;50.858;4.376;2023-02-27T06:32:46;0.70;99.90
39189;DHT22;24915;50.858;4.376;2023-02-27T06:35:11;0.70;99.90
39189;DHT22;24915;50.858;4.376;2023-02-27T06:37:37;0.80;99.90
39189;DHT22;24915;50.858;4.376;2023-02-27T06:40:04;0.80;99.90
39189;DHT22;24915;50.858;4.376;2023-02-27T06:42:40;0.70;99.90
39189;DHT22;24915;50.858;4.376;2023-02-27T06:45:07;0.70;99.90
39189;DHT22;24915;50.858;4.376;2023-02-27T06:47:32;0.70;99.90
39189;DHT22;24915;50.858;4.376;2023-02-27T06:49:58;0.80;99.90
39189;DHT22;24915;50.858;4.376;2023-02-27T06:52:24;0.80;99.90
39189;DHT22;24915;50.858;4.376;2023-02-27T06:54:50;0.70;99.90
39189;DHT22;24915;50.858;4.376;2023-02-27T06:57:15;0.80;99.90
39189;DHT22;24915;50.858;4.376;2023-02-27T06:59:41;0.80;99.90
39189;DHT22;24915;50.858;4.376;2023-02-27T07:02:13;0.90;99.90
39189;DHT22;24915;50.858;4.376;2023-02-27T07:04:38;1.00;99.90
39189;DHT22;24915;50.858;4.376;2023-02-27T07:07:04;1.10;99.90
39189;DHT22;24915;50.858;4.376;2023-02-27T07:09:30;1.20;99.90
39189;DHT22;24915;50.858;4.376;2023-02-27T07:11:56;1.40;99.90
39189;DHT22;24915;50.858;4.376;2023-02-27T07:14:21;1.50;99.90
39189;DHT22;24915;50.858;4.376;2023-02-27T07:16:47;1.60;99.90
39189;DHT22;24915;50.858;4.376;2023-02-27T07:19:16;1.80;99.90
39189;DHT22;24915;50.858;4.376;2023-02-27T07:21:43;2.00;99.90
39189;DHT22;24915;50.858;4.376;2023-02-27T07:24:09;2.10;99.90
39189;DHT22;24915;50.858;4.376;2023-02-27T07:26:35;2.20;99.90
39189;DHT22;24915;50.858;4.376;2023-02-27T07:29:01;2.40;99.90
39189;DHT22;24915;50.858;4.376;2023-02-27T07:31:27;2.50;99.90
39189;DHT22;24915;50.858;4.376;2023-02-27T07:33:53;2.60;99.90
39189;DHT22;24915;50.858;4.376;2023-02-27T07:36:19;2.70;99.90
39189;DHT22;24915;50.858;4.376;2023-02-27T07:38:45;2.90;99.90
39189;DHT22;24915;50.858;4.376;2023-02-27T07:41:10;3.00;99.90
39189;DHT22;24915;50.858;4.376;2023-02-27T07:43:36;3.10;99.90
39189;DHT22;24915;50.858;4.376;2023-02-27T07:46:02;3.20;99.90
39189;DHT22;24915;50.858;4.376;2023-02-27T07:48:29;3.30;99.90
39189;DHT22;24915;50.858;4.376;2023-02-27T07:50:55;3.40;99.90
39189;DHT22;24915;50.858;4.376;2023-02-27T07:53:21;3.50;99.90
39189;DHT22;24915;50.858;4.376;2023-02-27T07:55:47;3.60;99.90
39189;DHT22;24915;50.858;4.376;2023-02-27T07:58:12;3.70;99.90
39189;DHT22;24915;50.858;4.376;2023-02-27T08:00:38;3.80;99.90
39189;DHT22;24915;50.858;4.376;2023-02-27T08:03:04;3.90;99.90
39189;DHT22;24915;50.858;4.376;2023-02-27T08:05:30;4.00;99.90
39189;DHT22;24915;50.858;4.376;2023-02-27T08:07:56;4.20;99.90
39189;DHT22;24915;50.858;4.376;2023-02-27T08:10:21;4.30;99.90
39189;DHT22;24915;50.858;4.376;2023-02-27T08:12:47;4.40;99.90
39189;DHT22;24915;50.858;4.376;2023-02-27T08:15:13;4.50;99.90
39189;DHT22;24915;50.858;4.376;2023-02-27T08:17:38;4.60;99.90
39189;DHT22;24915;50.858;4.376;2023-02-27T08:20:05;4.70;99.90
39189;DHT22;24915;50.858;4.376;2023-02-27T08:22:32;4.80;99.90
39189;DHT22;24915;50.858;4.376;2023-02-27T08:24:57;4.90;99.90
39189;DHT22;24915;50.858;4.376;2023-02-27T08:27:23;5.00;99.90
39189;DHT22;24915;50.858;4.376;2023-02-27T08:29:49;5.10;99.90
39189;DHT22;24915;50.858;4.376;2023-02-27T08:32:14;5.20;99.90
39189;DHT22;24915;50.858;4.376;2023-02-27T08:34:40;5.30;99.90
39189;DHT22;24915;50.858;4.376;2023-02-27T08:37:06;5.50;99.90
39189;DHT22;24915;50.858;4.376;2023-02-27T08:39:32;5.60;99.90
39189;DHT22;24915;50.858;4.376;2023-02-27T08:41:57;5.70;99.90
39189;DHT22;24915;50.858;4.376;2023-02-27T08:44:23;5.80;99.90
39189;DHT22;24915;50.858;4.376;2023-02-27T08:46:49;5.90;99.90
39189;DHT22;24915;50.858;4.376;2023-02-27T08:49:15;5.90;99.90
39189;DHT22;24915;50.858;4.376;2023-02-27T08:51:40;6.10;99.90
39189;DHT22;24915;50.858;4.376;2023-02-27T08:54:06;6.20;99.90
39189;DHT22;24915;50.858;4.376;2023-02-27T08:56:32;6.30;99.90
39189;DHT22;24915;50.858;4.376;2023-02-27T08:58:59;6.40;99.90
39189;DHT22;24915;50.858;4.376;2023-02-27T09:01:25;6.50;99.90
39189;DHT22;24915;50.858;4.376;2023-02-27T09:03:53;6.50;99.90
39189;DHT22;24915;50.858;4.376;2023-02-27T09:06:19;6.60;99.90
39189;DHT22;24915;50.858;4.376;2023-02-27T09:08:45;6.70;99.90
39189;DHT22;24915;50.858;4.376;2023-02-27T09:11:11;6.90;99.90
39189;DHT22;24915;50.858;4.376;2023-02-27T09:13:36;7.00;99.90
39189;DHT22;24915;50.858;4.376;2023-02-27T09:16:02;7.10;99.90
39189;DHT22;24915;50.858;4.376;2023-02-27T09:18:28;7.10;99.90
39189;DHT22;24915;50.858;4.376;2023-02-27T09:20:53;7.20;99.90
39189;DHT22;24915;50.858;4.376;2023-02-27T09:23:20;7.30;99.90
39189;DHT22;24915;50.858;4.376;2023-02-27T09:25:47;7.40;99.90
39189;DHT22;24915;50.858;4.376;2023-02-27T09:28:13;7.50;99.90
39189;DHT22;24915;50.858;4.376;2023-02-27T09:30:38;7.60;99.90
39189;DHT22;24915;50.858;4.376;2023-02-27T09:33:04;7.60;99.90
39189;DHT22;24915;50.858;4.376;2023-02-27T09:35:30;7.80;99.90
39189;DHT22;24915;50.858;4.376;2023-02-27T09:37:58;7.90;99.90
39189;DHT22;24915;50.858;4.376;2023-02-27T09:40:27;8.00;99.90
39189;DHT22;24915;50.858;4.376;2023-02-27T09:42:56;8.10;99.90
39189;DHT22;24915;50.858;4.376;2023-02-27T09:45:28;8.20;99.90
39189;DHT22;24915;50.858;4.376;2023-02-27T09:50:49;8.50;99.80
39189;DHT22;24915;50.858;4.376;2023-02-27T09:53:25;8.50;98.90
39189;DHT22;24915;50.858;4.376;2023-02-27T09:55:53;8.50;99.10
39189;DHT22;24915;50.858;4.376;2023-02-27T10:01:36;8.70;98.50
39189;DHT22;24915;50.858;4.376;2023-02-27T10:09:44;9.20;96.80
39189;DHT22;24915;50.858;4.376;2023-02-27T10:14:49;9.50;95.90
39189;DHT22;24915;50.858;4.376;2023-02-27T10:17:36;9.60;95.60
39189;DHT22;24915;50.858;4.376;2023-02-27T10:20:06;9.70;95.00
39189;DHT22;24915;50.858;4.376;2023-02-27T10:22:38;9.90;95.20
39189;DHT22;24915;50.858;4.376;2023-02-27T10:25:12;10.10;94.70
39189;DHT22;24915;50.858;4.376;2023-02-27T10:27:40;10.20;94.00
39189;DHT22;24915;50.858;4.376;2023-02-27T10:32:46;10.20;92.10
39189;DHT22;24915;50.858;4.376;2023-02-27T10:35:33;10.20;92.30
39189;DHT22;24915;50.858;4.376;2023-02-27T10:38:11;10.30;91.90
39189;DHT22;24915;50.858;4.376;2023-02-27T10:40:39;10.40;91.70
39189;DHT22;24915;50.858;4.376;2023-02-27T10:43:06;10.50;91.90
39189;DHT22;24915;50.858;4.376;2023-02-27T10:45:32;10.60;91.90
39189;DHT22;24915;50.858;4.376;2023-02-27T10:48:01;10.80;91.60
39189;DHT22;24915;50.858;4.376;2023-02-27T10:50:30;10.80;90.40
39189;DHT22;24915;50.858;4.376;2023-02-27T10:53:03;11.00;90.40
39189;DHT22;24915;50.858;4.376;2023-02-27T10:55:31;11.00;88.50
39189;DHT22;24915;50.858;4.376;2023-02-27T10:57:58;11.00;88.70
39189;DHT22;24915;50.858;4.376;2023-02-27T11:03:20;11.40;88.70
39189;DHT22;24915;50.858;4.376;2023-02-27T11:05:59;11.70;89.20
39189;DHT22;24915;50.858;4.376;2023-02-27T11:08:28;11.80;87.40
39189;DHT22;24915;50.858;4.376;2023-02-27T11:13:22;12.00;86.40
39189;DHT22;24915;50.858;4.376;2023-02-27T11:18:47;12.30;83.70
39189;DHT22;24915;50.858;4.376;2023-02-27T11:26:41;12.70;81.80
39189;DHT22;24915;50.858;4.376;2023-02-27T11:29:19;12.90;81.90
39189;DHT22;24915;50.858;4.376;2023-02-27T11:31:52;13.20;82.20
39189;DHT22;24915;50.858;4.376;2023-02-27T11:34:48;13.40;80.00
39189;DHT22;24915;50.858;4.376;2023-02-27T11:37:27;13.60;80.80
39189;DHT22;24915;50.858;4.376;2023-02-27T11:40:03;13.80;78.70
39189;DHT22;24915;50.858;4.376;2023-02-27T11:42:52;13.90;78.50
39189;DHT22;24915;50.858;4.376;2023-02-27T11:47:48;14.30;78.30
39189;DHT22;24915;50.858;4.376;2023-02-27T11:53:31;14.50;74.90
39189;DHT22;24915;50.858;4.376;2023-02-27T11:56:00;14.70;75.40
39189;DHT22;24915;50.858;4.376;2023-02-27T11:58:33;14.80;74.00
39189;DHT22;24915;50.858;4.376;2023-02-27T12:01:15;14.70;71.20
39189;DHT22;24915;50.858;4.376;2023-02-27T12:03:47;14.70;72.20
39189;DHT22;24915;50.858;4.376;2023-02-27T12:06:21;14.90;73.00
39189;DHT22;24915;50.858;4.376;2023-02-27T12:08:51;15.00;68.10
39189;DHT22;24915;50.858;4.376;2023-02-27T12:11:55;14.90;70.10
39189;DHT22;24915;50.858;4.376;2023-02-27T12:14:27;15.10;72.00
39189;DHT22;24915;50.858;4.376;2023-02-27T12:19:57;15.50;69.30
39189;DHT22;24915;50.858;4.376;2023-02-27T12:22:34;15.40;69.70
39189;DHT22;24915;50.858;4.376;2023-02-27T12:28:21;16.00;71.00
39189;DHT22;24915;50.858;4.376;2023-02-27T12:31:05;16.20;68.20
39189;DHT22;24915;50.858;4.376;2023-02-27T12:33:57;16.30;67.60
39189;DHT22;24915;50.858;4.376;2023-02-27T12:36:23;16.40;66.50
39189;DHT22;24915;50.858;4.376;2023-02-27T12:38:49;16.40;64.10
39189;DHT22;24915;50.858;4.376;2023-02-27T12:44:29;16.40;63.30
39189;DHT22;24915;50.858;4.376;2023-02-27T12:47:24;16.20;61.70
39189;DHT22;24915;50.858;4.376;2023-02-27T12:50:20;16.20;61.50
39189;DHT22;24915;50.858;4.376;2023-02-27T12:52:56;15.70;60.20
39189;DHT22;24915;50.858;4.376;2023-02-27T12:55:30;15.60;61.80
39189;DHT22;24915;50.858;4.376;2023-02-27T13:00:54;15.70;61.00
39189;DHT22;24915;50.858;4.376;2023-02-27T13:11:56;15.80;59.30
39189;DHT22;24915;50.858;4.376;2023-02-27T13:14:45;15.70;58.20
39189;DHT22;24915;50.858;4.376;2023-02-27T13:19:49;14.90;59.50
39189;DHT22;24915;50.858;4.376;2023-02-27T13:25:13;14.90;60.60
39189;DHT22;24915;50.858;4.376;2023-02-27T13:27:51;14.60;59.30
39189;DHT22;24915;50.858;4.376;2023-02-27T13:30:27;14.70;62.70
39189;DHT22;24915;50.858;4.376;2023-02-27T13:32:58;15.10;61.60
39189;DHT22;24915;50.858;4.376;2023-02-27T13:38:47;15.40;60.50
39189;DHT22;24915;50.858;4.376;2023-02-27T13:46:31;15.70;58.90
39189;DHT22;24915;50.858;4.376;2023-02-27T13:59:35;16.50;58.90
39189;DHT22;24915;50.858;4.376;2023-02-27T14:07:16;16.80;57.70
39189;DHT22;24915;50.858;4.376;2023-02-27T14:09:52;17.00;58.40
39189;DHT22;24915;50.858;4.376;2023-02-27T14:12:36;17.20;58.10
39189;DHT22;24915;50.858;4.376;2023-02-27T14:17:52;17.50;57.90
39189;DHT22;24915;50.858;4.376;2023-02-27T14:23:21;17.80;56.90
39189;DHT22;24915;50.858;4.376;2023-02-27T14:26:16;18.10;55.70
39189;DHT22;24915;50.858;4.376;2023-02-27T14:28:50;18.60;55.40
39189;DHT22;24915;50.858;4.376;2023-02-27T14:31:31;19.30;54.40
39189;DHT22;24915;50.858;4.376;2023-02-27T14:33:59;20.50;53.30
39189;DHT22;24915;50.858;4.376;2023-02-27T14:36:45;21.50;50.50
39189;DHT22;24915;50.858;4.376;2023-02-27T14:39:30;22.40;47.90
39189;DHT22;24915;50.858;4.376;2023-02-27T14:44:40;23.80;44.70
39189;DHT22;24915;50.858;4.376;2023-02-27T14:47:14;23.90;44.00
39189;DHT22;24915;50.858;4.376;2023-02-27T14:49:41;24.20;43.60
39189;DHT22;24915;50.858;4.376;2023-02-27T14:52:29;24.90;42.90
39189;DHT22;24915;50.858;4.376;2023-02-27T14:58:00;24.60;41.20
39189;DHT22;24915;50.858;4.376;2023-02-27T15:03:38;21.70;42.80
39189;DHT22;24915;50.858;4.376;2023-02-27T15:06:11;21.60;43.40
39189;DHT22;24915;50.858;4.376;2023-02-27T15:08:39;21.10;44.00
39189;DHT22;24915;50.858;4.376;2023-02-27T15:11:06;21.50;43.50
39189;DHT22;24915;50.858;4.376;2023-02-27T15:13:38;20.60;44.40
39189;DHT22;24915;50.858;4.376;2023-02-27T15:18:56;19.30;45.60
39189;DHT22;24915;50.858;4.376;2023-02-27T15:21:25;19.10;45.80
39189;DHT22;24915;50.858;4.376;2023-02-27T15:26:24;21.70;43.50
39189;DHT22;24915;50.858;4.376;2023-02-27T15:28:50;22.60;42.10
39189;DHT22;24915;50.858;4.376;2023-02-27T15:31:23;23.20;40.90
39189;DHT22;24915;50.858;4.376;2023-02-27T15:33:51;23.20;40.30
39189;DHT22;24915;50.858;4.376;2023-02-27T15:36:29;20.80;42.30
39189;DHT22;24915;50.858;4.376;2023-02-27T15:39:13;18.50;45.80
39189;DHT22;24915;50.858;4.376;2023-02-27T15:41:48;19.20;45.20
39189;DHT22;24915;50.858;4.376;2023-02-27T15:44:23;19.60;44.30
39189;DHT22;24915;50.858;4.376;2023-02-27T15:46:49;20.20;44.10
39189;DHT22;24915;50.858;4.376;2023-02-27T15:49:22;20.80;43.20
39189;DHT22;24915;50.858;4.376;2023-02-27T15:52:02;21.10;43.00
39189;DHT22;24915;50.858;4.376;2023-02-27T15:54:35;21.40;42.60
39189;DHT22;24915;50.858;4.376;2023-02-27T15:57:04;21.40;42.80
39189;DHT22;24915;50.858;4.376;2023-02-27T15:59:35;21.40;42.20
39189;DHT22;24915;50.858;4.376;2023-02-27T16:02:03;21.30;42.40
39189;DHT22;24915;50.858;4.376;2023-02-27T16:04:29;20.60;43.00
39189;DHT22;24915;50.858;4.376;2023-02-27T16:07:05;19.80;44.40
39189;DHT22;24915;50.858;4.376;2023-02-27T16:09:34;17.90;46.00
39189;DHT22;24915;50.858;4.376;2023-02-27T16:12:29;15.80;49.70
39189;DHT22;24915;50.858;4.376;2023-02-27T16:15:31;13.90;52.70
39189;DHT22;24915;50.858;4.376;2023-02-27T16:20:51;11.50;58.00
39189;DHT22;24915;50.858;4.376;2023-02-27T16:23:26;10.90;59.20
39189;DHT22;24915;50.858;4.376;2023-02-27T16:26:14;10.30;60.80
39189;DHT22;24915;50.858;4.376;2023-02-27T16:31:21;9.60;64.00
39189;DHT22;24915;50.858;4.376;2023-02-27T16:33:47;9.40;65.20
39189;DHT22;24915;50.858;4.376;2023-02-27T16:36:24;9.10;65.60
39189;DHT22;24915;50.858;4.376;2023-02-27T16:38:50;9.00;66.60
39189;DHT22;24915;50.858;4.376;2023-02-27T16:41:18;8.80;67.20
39189;DHT22;24915;50.858;4.376;2023-02-27T16:43:45;8.60;68.10
39189;DHT22;24915;50.858;4.376;2023-02-27T16:46:16;8.50;68.20
39189;DHT22;24915;50.858;4.376;2023-02-27T16:48:51;8.20;68.70
39189;DHT22;24915;50.858;4.376;2023-02-27T16:51:20;8.10;69.30
39189;DHT22;24915;50.858;4.376;2023-02-27T16:53:48;7.90;70.30
39189;DHT22;24915;50.858;4.376;2023-02-27T16:56:14;7.90;70.80
39189;DHT22;24915;50.858;4.376;2023-02-27T16:58:40;7.80;71.60
39189;DHT22;24915;50.858;4.376;2023-02-27T17:01:05;7.70;71.70
39189;DHT22;24915;50.858;4.376;2023-02-27T17:03:31;7.60;72.20
39189;DHT22;24915;50.858;4.376;2023-02-27T17:05:58;7.40;72.10
39189;DHT22;24915;50.858;4.376;2023-02-27T17:08:23;7.30;74.00
39189;DHT22;24915;50.858;4.376;2023-02-27T17:10:49;7.20;74.20
39189;DHT22;24915;50.858;4.376;2023-02-27T17:13:15;7.20;74.40
39189;DHT22;24915;50.858;4.376;2023-02-27T17:15:41;7.10;75.00
39189;DHT22;24915;50.858;4.376;2023-02-27T17:18:07;7.00;75.40
39189;DHT22;24915;50.858;4.376;2023-02-27T17:20:33;6.90;75.70
39189;DHT22;24915;50.858;4.376;2023-02-27T17:22:59;6.90;76.30
39189;DHT22;24915;50.858;4.376;2023-02-27T17:25:24;6.80;76.40
39189;DHT22;24915;50.858;4.376;2023-02-27T17:27:51;6.70;76.90
39189;DHT22;24915;50.858;4.376;2023-02-27T17:30:17;6.70;77.30
39189;DHT22;24915;50.858;4.376;2023-02-27T17:32:45;6.60;77.30
39189;DHT22;24915;50.858;4.376;2023-02-27T17:35:11;6.60;77.90
39189;DHT22;24915;50.858;4.376;2023-02-27T17:37:37;6.50;78.20
39189;DHT22;24915;50.858;4.376;2023-02-27T17:40:05;6.50;78.90
39189;DHT22;24915;50.858;4.376;2023-02-27T17:42:35;6.50;78.70
39189;DHT22;24915;50.858;4.376;2023-02-27T17:45:01;6.40;79.50
39189;DHT22;24915;50.858;4.376;2023-02-27T17:47:30;6.40;80.00
39189;DHT22;24915;50.858;4.376;2023-02-27T17:49:55;6.30;79.90
39189;DHT22;24915;50.858;4.376;2023-02-27T17:52:21;6.30;80.40
39189;DHT22;24915;50.858;4.376;2023-02-27T17:54:47;6.30;80.50
39189;DHT22;24915;50.858;4.376;2023-02-27T17:57:13;6.30;81.20
39189;DHT22;24915;50.858;4.376;2023-02-27T17:59:38;6.30;81.10
39189;DHT22;24915;50.858;4.376;2023-02-27T18:02:05;6.30;81.30
39189;DHT22;24915;50.858;4.376;2023-02-27T18:04:31;6.20;81.40
39189;DHT22;24915;50.858;4.376;2023-02-27T18:06:57;6.20;81.60
39189;DHT22;24915;50.858;4.376;2023-02-27T18:09:22;6.20;82.00
39189;DHT22;24915;50.858;4.376;2023-02-27T18:11:48;6.10;82.30
39189;DHT22;24915;50.858;4.376;2023-02-27T18:14:14;6.10;82.90
39189;DHT22;24915;50.858;4.376;2023-02-27T18:16:40;6.10;83.10
39189;DHT22;24915;50.858;4.376;2023-02-27T18:19:07;6.10;83.30
39189;DHT22;24915;50.858;4.376;2023-02-27T18:21:33;6.10;83.50
39189;DHT22;24915;50.858;4.376;2023-02-27T18:23:59;6.20;83.70
39189;DHT22;24915;50.858;4.376;2023-02-27T18:26:26;6.20;83.90
39189;DHT22;24915;50.858;4.376;2023-02-27T18:28:52;6.20;84.30
39189;DHT22;24915;50.858;4.376;2023-02-27T18:31:22;6.30;84.10
39189;DHT22;24915;50.858;4.376;2023-02-27T18:33:49;6.30;84.10
39189;DHT22;24915;50.858;4.376;2023-02-27T18:36:14;6.30;84.00
39189;DHT22;24915;50.858;4.376;2023-02-27T18:38:41;6.30;84.20
39189;DHT22;24915;50.858;4.376;2023-02-27T18:41:06;6.20;84.50
39189;DHT22;24915;50.858;4.376;2023-02-27T18:43:34;6.30;85.00
39189;DHT22;24915;50.858;4.376;2023-02-27T18:46:00;6.20;84.70
39189;DHT22;24915;50.858;4.376;2023-02-27T18:48:25;6.20;85.20
39189;DHT22;24915;50.858;4.376;2023-02-27T18:50:51;6.20;85.70
39189;DHT22;24915;50.858;4.376;2023-02-27T18:53:17;6.20;85.40
39189;DHT22;24915;50.858;4.376;2023-02-27T18:55:43;6.20;85.60
39189;DHT22;24915;50.858;4.376;2023-02-27T18:58:09;6.20;85.70
39189;DHT22;24915;50.858;4.376;2023-02-27T19:00:35;6.10;85.70
39189;DHT22;24915;50.858;4.376;2023-02-27T19:03:00;6.10;86.10